Ever Ursula — 3FCB9 — position and weather

sailwx.info

Track history (hours):
 
Tides and Currents Weather Stations Pressure Air Temp Water Temp Dewpoint Dewpoint Depression Visibility Wind Speed Wind Dir Waves Ship Positions

Ever Ursula

Last reported at 2015-Jul-04 06:00 UTC. Time now 2015-Jul-04 15:18 UTC.
Position N 41°00' E 168°00'.

Type: Cargo ship. MMSI: 357737000.

Wind from 280 at 17 knots

Waves 2.0 meters (7 feet), 7 second period

Barometer 1090.0 mb
Air temperature 18.8 ° C
Visibility: greater than 10.8 NM
Water temperature 0.4 ° C

Date/timePositionNaut miles runAvg speedWind from/ knotsBaromVisibWave heightAir tempDewpointWater temp
2015-Jul-04 06:00N 41°00' E 168°00'   280 / 171090.010.8 2.018.8 0.4
2015-Jun-28 15:12N 25°10' E 120°36'1519.6
2015-Jun-28 14:25N 24°59' E 120°24'2519.2
2015-Jun-28 13:07N 24°43' E 120°03'5019.2
2015-Jun-28 10:31N 24°09' E 119°23'2219.5
2015-Jun-28 09:24N 23°56' E 119°04'1720.1
2015-Jun-28 08:33N 23°47' E 118°47'2020.3
2015-Jun-28 07:33N 23°37' E 118°28'2020.1
2015-Jun-28 06:32N 23°27' E 118°09'221 6.5
2015-Jun-26 20:23N 22°34' E 114°16'15 1.3
2015-Jun-26 08:32N 22°23' E 114°28'1514.9
2015-Jun-26 07:32N 22°09' E 114°22'1611.0
2015-Jun-26 06:06N 22°16' E 114°06'15 9.5
2015-Jun-26 04:34N 22°24' E 113°53'2 2.4
2015-Jun-26 03:31N 22°27' E 113°53'0 0.0
2015-Jun-26 02:22N 22°27' E 113°53'0 0.0
2015-Jun-26 01:33N 22°27' E 113°53'0 0.0
2015-Jun-26 00:34N 22°27' E 113°53'0 0.0
2015-Jun-25 23:33N 22°27' E 113°53'0 0.0
2015-Jun-25 22:33N 22°27' E 113°53'0 0.0
2015-Jun-25 21:34N 22°27' E 113°53'0 0.0
2015-Jun-25 20:33N 22°27' E 113°53'0 0.0
2015-Jun-25 19:34N 22°27' E 113°53'0 0.0
2015-Jun-25 18:33N 22°27' E 113°53'0 0.0
2015-Jun-25 17:33N 22°27' E 113°53'0 0.0
2015-Jun-25 16:34N 22°27' E 113°53'0 0.1
2015-Jun-25 15:33N 22°27' E 113°53'0 0.1
2015-Jun-25 14:33N 22°27' E 113°53'0 0.0
2015-Jun-25 13:33N 22°27' E 113°53'0 0.1
2015-Jun-25 12:34N 22°27' E 113°53'0 0.1
2015-Jun-25 11:33N 22°27' E 113°53'0 0.1
2015-Jun-25 10:33N 22°27' E 113°53'0 0.0
2015-Jun-25 09:24N 22°27' E 113°53'0 0.2
2015-Jun-25 08:33N 22°27' E 113°53'10 7.0
2015-Jun-25 07:04N 22°21' E 114°03'610.8
2015-Jun-25 06:33N 22°17' E 114°06'11 8.8
2015-Jun-25 05:18N 22°09' E 114°15'810.6
2015-Jun-25 04:33N 22°11' E 114°23'3 2.6
2015-Jun-25 03:33N 22°12' E 114°26'15412.6
2015-Jun-24 15:19N 22°56' E 117°05'4413.8
2015-Jun-24 12:09N 23°25' E 117°41'1214.9
2015-Jun-24 11:22N 23°34' E 117°48'1114.0
2015-Jun-24 10:33N 23°43' E 117°55'1413.6
2015-Jun-24 09:33N 23°55' E 118°04'1714.5
2015-Jun-24 08:22N 24°08' E 118°16'910.7
2015-Jun-24 07:33N 24°16' E 118°14'1312.6
2015-Jun-24 06:33N 24°25' E 118°04'  
Track history (hours):
 
Tides and Currents Weather Stations Pressure Air Temp Water Temp Dewpoint Dewpoint Depression Visibility Wind Speed Wind Dir Waves Ship Positions

Ever Ursula

Last reported at 2015-Jul-04 06:00 UTC. Time now 2015-Jul-04 15:18 UTC.
Position N 41°00' E 168°00'.

Type: Cargo ship. MMSI: 357737000.

Wind from 280 at 17 knots

Waves 2.0 meters (7 feet), 7 second period

Barometer 1090.0 mb
Air temperature 18.8 ° C
Visibility: greater than 10.8 NM
Water temperature 0.4 ° C

Date/timePositionNaut miles runAvg speedWind from/ knotsBaromVisibWave heightAir tempDewpointWater temp
2015-Jul-04 06:00N 41°00' E 168°00'   280 / 171090.010.8 2.018.8 0.4
2015-Jun-28 15:12N 25°10' E 120°36'1519.6
2015-Jun-28 14:25N 24°59' E 120°24'2519.2
2015-Jun-28 13:07N 24°43' E 120°03'5019.2
2015-Jun-28 10:31N 24°09' E 119°23'2219.5
2015-Jun-28 09:24N 23°56' E 119°04'1720.1
2015-Jun-28 08:33N 23°47' E 118°47'2020.3
2015-Jun-28 07:33N 23°37' E 118°28'2020.1
2015-Jun-28 06:32N 23°27' E 118°09'221 6.5
2015-Jun-26 20:23N 22°34' E 114°16'15 1.3
2015-Jun-26 08:32N 22°23' E 114°28'1514.9
2015-Jun-26 07:32N 22°09' E 114°22'1611.0
2015-Jun-26 06:06N 22°16' E 114°06'15 9.5
2015-Jun-26 04:34N 22°24' E 113°53'2 2.4
2015-Jun-26 03:31N 22°27' E 113°53'0 0.0
2015-Jun-26 02:22N 22°27' E 113°53'0 0.0
2015-Jun-26 01:33N 22°27' E 113°53'0 0.0
2015-Jun-26 00:34N 22°27' E 113°53'0 0.0
2015-Jun-25 23:33N 22°27' E 113°53'0 0.0
2015-Jun-25 22:33N 22°27' E 113°53'0 0.0
2015-Jun-25 21:34N 22°27' E 113°53'0 0.0
2015-Jun-25 20:33N 22°27' E 113°53'0 0.0
2015-Jun-25 19:34N 22°27' E 113°53'0 0.0
2015-Jun-25 18:33N 22°27' E 113°53'0 0.0
2015-Jun-25 17:33N 22°27' E 113°53'0 0.0
2015-Jun-25 16:34N 22°27' E 113°53'0 0.1
2015-Jun-25 15:33N 22°27' E 113°53'0 0.1
2015-Jun-25 14:33N 22°27' E 113°53'0 0.0
2015-Jun-25 13:33N 22°27' E 113°53'0 0.1
2015-Jun-25 12:34N 22°27' E 113°53'0 0.1
2015-Jun-25 11:33N 22°27' E 113°53'0 0.1
2015-Jun-25 10:33N 22°27' E 113°53'0 0.0
2015-Jun-25 09:24N 22°27' E 113°53'0 0.2
2015-Jun-25 08:33N 22°27' E 113°53'10 7.0
2015-Jun-25 07:04N 22°21' E 114°03'610.8
2015-Jun-25 06:33N 22°17' E 114°06'11 8.8
2015-Jun-25 05:18N 22°09' E 114°15'810.6
2015-Jun-25 04:33N 22°11' E 114°23'3 2.6
2015-Jun-25 03:33N 22°12' E 114°26'15412.6
2015-Jun-24 15:19N 22°56' E 117°05'4413.8
2015-Jun-24 12:09N 23°25' E 117°41'1214.9
2015-Jun-24 11:22N 23°34' E 117°48'1114.0
2015-Jun-24 10:33N 23°43' E 117°55'1413.6
2015-Jun-24 09:33N 23°55' E 118°04'1714.5
2015-Jun-24 08:22N 24°08' E 118°16'910.7
2015-Jun-24 07:33N 24°16' E 118°14'1312.6
2015-Jun-24 06:33N 24°25' E 118°04'  

Dump ship's entire track history